Time;durP1;ratioP1;P1;durP2;ratioP2;P2;SDS_P1;SDS_P2;PMS_P1;PMS_P2;Temp;Humidity;BMP_temperature;BMP_pressure;BME280_temperature;BME280_humidity;BME280_pressure;Samples;Min_cycle;Max_cycle;Signal;HPM_P1;HPM_P2
2021/10/15 00:00:41;;;;;;;6.00;5.00;;;;;;;9.29;44.06;100539.38;5041597;28;20063;-75
2021/10/15 00:03:07;;;;;;;7.80;5.07;;;;;;;9.32;44.26;100547.22;5076089;28;20051;-75
2021/10/15 00:05:32;;;;;;;7.88;4.93;;;;;;;9.36;43.99;100549.63;5075671;28;20193;-75
2021/10/15 00:07:58;;;;;;;7.82;4.97;;;;;;;9.40;44.16;100540.53;5042410;28;20055;-76
2021/10/15 00:10:24;;;;;;;5.90;4.80;;;;;;;9.35;43.90;100536.38;5025852;28;20117;-75
2021/10/15 00:12:50;;;;;;;9.68;4.93;;;;;;;9.47;43.95;100547.22;5042499;28;20047;-75
2021/10/15 00:15:17;;;;;;;5.03;4.15;;;;;;;9.46;43.83;100540.16;5058679;28;20509;-75
2021/10/15 00:17:43;;;;;;;6.80;4.47;;;;;;;9.50;43.51;100535.50;5059029;28;20040;-76
2021/10/15 00:20:10;;;;;;;7.03;4.10;;;;;;;9.55;43.69;100525.41;5075703;28;20609;-75
2021/10/15 00:22:36;;;;;;;11.07;4.60;;;;;;;9.69;43.32;100540.66;5059174;28;20403;-76
2021/10/15 00:25:02;;;;;;;7.47;4.70;;;;;;;9.77;43.22;100543.75;5058948;28;20139;-76
2021/10/15 00:27:29;;;;;;;7.90;4.30;;;;;;;9.71;43.52;100547.66;5092028;28;20491;-77
2021/10/15 00:29:56;;;;;;;8.82;4.30;;;;;;;9.65;43.55;100547.97;5026345;28;20081;-75
2021/10/15 00:32:22;;;;;;;6.00;4.18;;;;;;;9.64;43.43;100534.72;5058649;28;20044;-75
2021/10/15 00:34:48;;;;;;;4.00;3.60;;;;;;;9.54;43.29;100542.38;5075442;28;20048;-75
2021/10/15 00:37:17;;;;;;;8.63;4.35;;;;;;;9.55;43.67;100543.25;5042330;28;20067;-76
2021/10/15 00:39:43;;;;;;;6.15;4.20;;;;;;;9.51;43.50;100539.88;5059442;28;20067;-76
2021/10/15 00:42:09;;;;;;;8.77;4.32;;;;;;;9.46;43.86;100549.97;5041587;28;20487;-75
2021/10/15 00:44:38;;;;;;;7.00;5.43;;;;;;;9.47;43.52;100547.22;5075359;28;20482;-75
2021/10/15 00:47:04;;;;;;;10.38;6.35;;;;;;;9.45;43.53;100538.44;5058944;28;20537;-76
2021/10/15 00:49:30;;;;;;;14.15;7.30;;;;;;;9.42;43.47;100527.06;5075992;28;20122;-76
2021/10/15 00:51:56;;;;;;;14.25;8.82;;;;;;;9.40;43.53;100520.94;5042542;28;20065;-76
2021/10/15 00:54:22;;;;;;;15.95;8.60;;;;;;;9.22;43.71;100502.38;5042064;28;20040;-75
2021/10/15 00:56:48;;;;;;;15.98;7.75;;;;;;;9.35;43.68;100513.22;5041789;28;20108;-75
2021/10/15 00:59:14;;;;;;;13.20;7.85;;;;;;;9.25;43.42;100509.34;5025336;28;20419;-75
2021/10/15 01:01:41;;;;;;;10.77;6.50;;;;;;;9.34;43.66;100524.00;5058421;28;20058;-76
2021/10/15 01:04:07;;;;;;;11.65;7.10;;;;;;;9.33;43.41;100522.28;5042054;28;20471;-75
2021/10/15 01:06:33;;;;;;;10.05;6.03;;;;;;;9.23;43.51;100506.75;5025419;28;20040;-76
2021/10/15 01:08:59;;;;;;;9.15;5.38;;;;;;;9.35;43.15;100520.38;5041661;28;20040;-75
2021/10/15 01:11:25;;;;;;;9.80;5.95;;;;;;;9.33;43.26;100520.47;5074458;28;20055;-76
2021/10/15 01:13:51;;;;;;;7.15;5.57;;;;;;;9.19;43.40;100512.34;5041560;28;20036;-75
2021/10/15 01:16:17;;;;;;;9.00;5.07;;;;;;;9.29;43.43;100524.25;5041636;28;20513;-76
2021/10/15 01:18:43;;;;;;;5.82;4.55;;;;;;;9.35;43.01;100523.03;5041551;28;20065;-76
2021/10/15 01:21:10;;;;;;;7.00;5.10;;;;;;;9.35;42.94;100513.22;5058311;28;20040;-76
2021/10/15 01:23:36;;;;;;;16.17;5.40;;;;;;;9.26;42.96;100500.41;5091227;28;20070;-75
2021/10/15 01:26:02;;;;;;;8.07;5.63;;;;;;;9.37;42.81;100527.34;5058193;28;20044;-75
2021/10/15 01:28:29;;;;;;;10.98;5.97;;;;;;;9.45;42.96;100516.25;5041159;28;20043;-76
2021/10/15 01:30:55;;;;;;;13.23;6.05;;;;;;;9.39;43.16;100506.75;5074476;28;20046;-75
2021/10/15 01:33:21;;;;;;;10.35;5.95;;;;;;;9.33;42.77;100479.56;5074275;28;20395;-75
2021/10/15 01:35:47;;;;;;;9.30;5.97;;;;;;;9.49;42.64;100491.09;5058209;28;20040;-76
2021/10/15 01:38:13;;;;;;;20.48;6.38;;;;;;;9.56;42.60;100494.28;5041130;28;20043;-76
2021/10/15 01:40:39;;;;;;;14.93;5.28;;;;;;;9.61;42.72;100494.88;5057772;28;20069;-75
2021/10/15 01:43:05;;;;;;;16.75;5.43;;;;;;;9.51;42.38;100482.97;5057800;28;20044;-76
2021/10/15 01:45:31;;;;;;;18.83;5.03;;;;;;;9.62;42.26;100492.09;5041200;28;20044;-75
2021/10/15 01:47:57;;;;;;;8.13;4.18;;;;;;;9.60;42.14;100493.16;5041042;28;20043;-76
2021/10/15 01:50:23;;;;;;;12.63;4.00;;;;;;;9.65;42.34;100507.09;5057274;28;20055;-76
2021/10/15 01:52:49;;;;;;;4.60;3.75;;;;;;;9.53;42.22;100491.78;5074446;28;20135;-76
2021/10/15 01:55:16;;;;;;;15.52;3.90;;;;;;;9.54;42.54;100509.50;5057593;28;20036;-76
2021/10/15 01:57:41;;;;;;;5.18;3.88;;;;;;;9.56;42.01;100516.50;5091067;28;20042;-76
2021/10/15 02:00:10;;;;;;;4.75;3.75;;;;;;;9.51;42.28;100493.66;5058036;28;20047;-76
2021/10/15 02:02:39;;;;;;;9.02;4.18;;;;;;;9.51;42.49;100499.00;5074529;28;20040;-76
2021/10/15 02:05:06;;;;;;;7.78;3.63;;;;;;;9.62;42.08;100508.09;5074064;28;20032;-76
2021/10/15 02:07:32;;;;;;;13.27;4.13;;;;;;;9.54;41.94;100496.16;5090769;28;20380;-76
2021/10/15 02:09:58;;;;;;;7.72;3.80;;;;;;;9.53;41.97;100497.13;5040582;28;20043;-76
2021/10/15 02:12:23;;;;;;;7.00;4.55;;;;;;;9.66;41.85;100496.31;5041106;28;20040;-75
2021/10/15 02:14:50;;;;;;;5.22;3.60;;;;;;;9.61;41.64;100505.53;5025239;28;20047;-76
2021/10/15 02:17:16;;;;;;;5.35;3.80;;;;;;;9.51;41.68;100482.97;5040973;28;20047;-76
2021/10/15 02:19:42;;;;;;;9.85;4.15;;;;;;;9.63;41.75;100501.84;5040791;28;20558;-76
2021/10/15 02:22:08;;;;;;;7.03;4.03;;;;;;;9.59;41.49;100480.72;5040589;28;20533;-79
2021/10/15 02:24:35;;;;;;;7.72;4.10;;;;;;;9.51;41.54;100488.31;5027262;28;20181;-76
2021/10/15 02:27:01;;;;;;;7.78;4.05;;;;;;;9.38;42.00;100483.69;5076905;28;20438;-75
2021/10/15 02:29:27;;;;;;;8.40;4.18;;;;;;;9.29;41.75;100468.22;5060632;28;20050;-76
2021/10/15 02:31:53;;;;;;;7.32;3.83;;;;;;;9.30;41.98;100479.75;5027895;28;20056;-75
2021/10/15 02:34:19;;;;;;;7.45;4.10;;;;;;;9.26;42.17;100468.38;5027280;28;20043;-77
2021/10/15 02:36:45;;;;;;;5.50;4.18;;;;;;;9.20;42.05;100458.06;5044757;28;20517;-76
2021/10/15 02:39:11;;;;;;;9.60;4.28;;;;;;;9.28;41.89;100482.47;5095122;28;20039;-78
2021/10/15 02:41:37;;;;;;;8.45;4.60;;;;;;;9.22;42.12;100473.03;5044831;28;20047;-75
2021/10/15 02:44:07;;;;;;;14.73;5.63;;;;;;;9.26;42.11;100478.22;5060860;28;20127;-78
2021/10/15 02:46:33;;;;;;;15.15;4.78;;;;;;;9.28;41.93;100469.13;5094280;28;20044;-77
2021/10/15 02:48:59;;;;;;;11.63;4.35;;;;;;;9.28;41.50;100465.63;5027701;28;20062;-76
2021/10/15 02:51:25;;;;;;;16.00;4.43;;;;;;;9.19;41.50;100475.00;5077030;28;20088;-76
2021/10/15 02:53:51;;;;;;;19.40;4.43;;;;;;;9.20;41.75;100468.72;5077405;28;20601;-76
2021/10/15 02:56:17;;;;;;;15.73;4.00;;;;;;;9.21;41.97;100460.66;5043655;28;20070;-77
2021/10/15 02:58:43;;;;;;;7.63;4.20;;;;;;;9.22;42.01;100457.03;5044327;28;20538;-76
2021/10/15 03:01:09;;;;;;;12.27;4.05;;;;;;;9.24;41.92;100454.25;5043760;28;20509;-75
2021/10/15 03:03:35;;;;;;;21.17;5.65;;;;;;;9.12;41.86;100434.47;5043661;28;20577;-75
2021/10/15 03:06:01;;;;;;;21.65;5.00;;;;;;;9.18;41.87;100451.97;5076978;28;20173;-75
2021/10/15 03:08:27;;;;;;;7.82;4.63;;;;;;;9.24;41.81;100443.59;5093557;28;20407;-76
2021/10/15 03:10:53;;;;;;;8.50;4.95;;;;;;;9.19;41.83;100440.34;5076715;28;20052;-75
2021/10/15 03:13:19;;;;;;;12.07;4.78;;;;;;;9.23;41.92;100437.41;5043308;28;20040;-76
2021/10/15 03:15:45;;;;;;;10.02;5.22;;;;;;;9.27;41.37;100430.06;5043903;28;20131;-78
2021/10/15 03:18:11;;;;;;;9.70;5.50;;;;;;;9.12;41.67;100412.28;5043343;28;20047;-78
2021/10/15 03:20:37;;;;;;;11.20;6.28;;;;;;;9.22;41.50;100432.16;5026570;28;20040;-76
2021/10/15 03:23:03;;;;;;;15.20;6.43;;;;;;;9.22;41.52;100424.16;5044218;28;20048;-76
2021/10/15 03:25:29;;;;;;;16.00;7.70;;;;;;;9.19;41.51;100413.66;5043386;28;20051;-75
2021/10/15 03:27:56;;;;;;;13.55;6.40;;;;;;;9.23;41.42;100420.53;5059822;28;20101;-75
2021/10/15 03:30:22;;;;;;;14.60;6.57;;;;;;;9.24;41.38;100424.91;5043582;28;20047;-77
2021/10/15 03:32:48;;;;;;;16.25;7.20;;;;;;;9.21;41.17;100412.63;5026781;28;20113;-77
2021/10/15 03:35:14;;;;;;;19.90;6.70;;;;;;;9.26;41.20;100411.50;5043127;28;20490;-75
2021/10/15 03:37:40;;;;;;;15.13;6.45;;;;;;;9.30;40.95;100395.22;5043514;28;20092;-75
2021/10/15 03:40:06;;;;;;;18.80;6.45;;;;;;;9.30;41.30;100400.56;5076632;28;20506;-76
2021/10/15 03:42:32;;;;;;;11.07;5.45;;;;;;;9.33;41.31;100419.06;5059606;28;20126;-75
2021/10/15 03:44:58;;;;;;;10.80;6.15;;;;;;;9.38;41.05;100413.44;5057677;28;20094;-75
2021/10/15 03:47:24;;;;;;;7.93;5.18;;;;;;;9.47;40.63;100413.75;5039002;28;20036;-77
2021/10/15 03:49:50;;;;;;;13.48;6.03;;;;;;;9.45;41.40;100399.66;5055616;28;20040;-79
2021/10/15 03:52:16;;;;;;;11.45;4.65;;;;;;;9.51;40.78;100403.75;5039411;28;20135;-76
2021/10/15 03:54:42;;;;;;;10.80;4.30;;;;;;;9.73;42.04;100387.34;5056189;28;20043;-79
2021/10/15 03:57:08;;;;;;;7.88;3.47;;;;;;;10.17;44.78;100397.16;5055860;28;20053;-79
2021/10/15 03:59:33;;;;;;;9.73;3.80;;;;;;;10.32;40.34;100388.22;5055887;28;20040;-79
2021/10/15 04:01:59;;;;;;;5.57;3.85;;;;;;;10.37;39.83;100398.59;5039477;28;20380;-78
2021/10/15 04:04:25;;;;;;;9.00;3.60;;;;;;;10.38;40.64;100403.00;5056019;28;20063;-79
2021/10/15 04:06:51;;;;;;;11.75;3.47;;;;;;;10.32;38.86;100380.19;5040176;28;20040;-79
2021/10/15 04:09:17;;;;;;;7.65;3.42;;;;;;;10.45;39.38;100402.53;5039610;28;20051;-78
2021/10/15 04:11:43;;;;;;;8.13;3.80;;;;;;;10.50;39.17;100409.41;5072258;28;20089;-79
2021/10/15 04:14:09;;;;;;;12.38;3.70;;;;;;;10.59;38.11;100404.34;5074041;28;20567;-77
2021/10/15 04:16:35;;;;;;;4.10;3.70;;;;;;;10.72;37.69;100403.53;5055947;28;20123;-77
2021/10/15 04:19:01;;;;;;;11.32;4.00;;;;;;;10.60;37.61;100397.16;5055555;28;20553;-76
2021/10/15 04:21:27;;;;;;;8.40;3.10;;;;;;;10.59;37.70;100398.13;5039098;28;20127;-76
2021/10/15 04:23:53;;;;;;;7.55;3.53;;;;;;;10.54;37.71;100390.41;5022925;28;20041;-78
2021/10/15 04:26:19;;;;;;;9.02;3.33;;;;;;;10.59;37.29;100395.44;5055478;28;20109;-75
2021/10/15 04:28:45;;;;;;;13.55;3.53;;;;;;;10.44;37.75;100379.41;5055358;28;20060;-76
2021/10/15 04:31:11;;;;;;;4.88;3.28;;;;;;;10.53;37.80;100375.31;5038668;28;20456;-77
2021/10/15 04:33:38;;;;;;;4.25;3.25;;;;;;;10.70;37.52;100382.25;5022305;28;20138;-76
2021/10/15 04:36:04;;;;;;;9.23;3.10;;;;;;;10.70;37.38;100390.28;5055487;28;20044;-76
2021/10/15 04:38:30;;;;;;;6.15;3.00;;;;;;;10.73;37.15;100390.09;5055371;28;20041;-77
2021/10/15 04:40:56;;;;;;;4.55;2.78;;;;;;;10.79;37.08;100392.34;5055219;28;20551;-77
2021/10/15 04:43:22;;;;;;;6.25;3.00;;;;;;;10.87;37.18;100398.09;5048663;28;20072;-77
2021/10/15 04:45:48;;;;;;;7.50;3.10;;;;;;;10.93;36.93;100403.03;5040716;28;20040;-81
2021/10/15 04:48:14;;;;;;;12.43;3.67;;;;;;;11.08;36.64;100405.69;5017019;28;20446;-79
2021/10/15 04:50:40;;;;;;;3.53;2.90;;;;;;;11.17;36.28;100394.38;5048241;28;20066;-79
2021/10/15 04:53:06;;;;;;;4.28;2.75;;;;;;;11.24;35.91;100397.50;5037641;28;20048;-78
2021/10/15 04:55:32;;;;;;;5.22;3.05;;;;;;;11.39;35.92;100402.69;5072647;28;20043;-78
2021/10/15 04:58:00;;;;;;;6.28;2.70;;;;;;;11.47;36.00;100402.19;5033930;28;20040;-78
2021/10/15 05:00:30;;;;;;;9.20;2.70;;;;;;;11.51;35.45;100392.13;5058512;28;20487;-77
2021/10/15 05:02:56;;;;;;;11.02;3.38;;;;;;;11.73;35.37;100408.44;5076153;28;20048;-78
2021/10/15 05:05:28;;;;;;;7.22;2.78;;;;;;;11.70;34.88;100391.72;5059640;28;20052;-78
2021/10/15 05:07:55;;;;;;;7.85;3.22;;;;;;;11.81;34.10;100397.22;5075073;28;20113;-78
2021/10/15 05:10:22;;;;;;;4.53;2.97;;;;;;;11.98;34.33;100401.47;5058679;28;20040;-78
2021/10/15 05:12:48;;;;;;;7.95;3.10;;;;;;;12.00;33.73;100410.25;5058390;28;20044;-77
2021/10/15 05:15:15;;;;;;;6.10;3.40;;;;;;;12.16;33.80;100410.91;5039380;28;20040;-78
2021/10/15 05:17:41;;;;;;;8.65;3.35;;;;;;;12.19;33.43;100404.50;5037710;28;20043;-77
2021/10/15 05:20:09;;;;;;;9.30;2.97;;;;;;;12.28;33.15;100399.31;5054893;28;20036;-77
2021/10/15 05:22:35;;;;;;;8.07;3.40;;;;;;;12.36;32.83;100398.78;5038238;28;20045;-78
2021/10/15 05:25:01;;;;;;;5.03;2.70;;;;;;;12.44;32.73;100409.81;5054886;28;20044;-77
2021/10/15 05:27:28;;;;;;;5.03;2.53;;;;;;;12.55;32.37;100401.88;5054279;28;20048;-76
2021/10/15 05:29:54;;;;;;;3.15;2.42;;;;;;;12.62;32.41;100407.66;5054605;28;20040;-76
2021/10/15 05:32:20;;;;;;;8.85;2.50;;;;;;;12.72;31.82;100398.00;5054490;28;20094;-75
2021/10/15 05:34:46;;;;;;;3.80;2.58;;;;;;;12.82;32.02;100385.59;5054686;28;20048;-77
2021/10/15 05:37:13;;;;;;;13.93;2.70;;;;;;;12.85;31.50;100385.38;5057522;28;20151;-76
2021/10/15 05:39:39;;;;;;;15.02;2.78;;;;;;;12.94;31.32;100373.16;5091525;28;20073;-77
2021/10/15 05:42:05;;;;;;;12.02;2.47;;;;;;;13.03;30.98;100371.59;5041063;28;20039;-77
2021/10/15 05:44:32;;;;;;;8.38;2.72;;;;;;;13.06;30.71;100369.53;5041323;28;20040;-77
2021/10/15 05:47:04;;;;;;;12.35;2.45;;;;;;;13.11;30.46;100362.00;5091010;28;20105;-77
2021/10/15 05:49:35;;;;;;;16.85;2.88;;;;;;;13.02;30.01;100343.06;5059493;28;20378;-77
2021/10/15 05:52:04;;;;;;;36.35;3.58;;;;;;;13.04;30.23;100351.84;5058676;28;20078;-78
2021/10/15 05:54:39;;;;;;;13.73;2.42;;;;;;;13.04;30.26;100346.47;5058266;28;20075;-76
2021/10/15 05:59:40;;;;;;;12.90;2.63;;;;;;;13.20;30.61;100351.53;5047456;28;20475;-77
2021/10/15 06:02:07;;;;;;;16.83;2.35;;;;;;;13.18;30.14;100348.13;5045762;28;20040;-78
2021/10/15 06:15:33;;;;;;;15.63;3.20;;;;;;;13.34;30.34;100332.59;5065521;28;20553;-77
2021/10/15 06:18:09;;;;;;;9.05;2.70;;;;;;;13.28;30.09;100315.13;5063836;28;20063;-78
2021/10/15 06:20:36;;;;;;;5.07;2.40;;;;;;;13.34;30.17;100325.41;5049030;28;20044;-76
2021/10/15 06:23:02;;;;;;;10.70;2.40;;;;;;;13.34;30.10;100309.28;5078531;28;20066;-77
2021/10/15 06:25:31;;;;;;;7.75;2.67;;;;;;;13.38;30.00;100303.69;5044626;28;20142;-75
2021/10/15 06:28:00;;;;;;;16.85;2.72;;;;;;;13.31;30.42;100309.53;5044746;28;20102;-77
2021/10/15 06:30:26;;;;;;;13.63;2.43;;;;;;;13.43;30.26;100309.59;5061959;28;20036;-76
2021/10/15 06:32:53;;;;;;;7.55;2.53;;;;;;;13.64;29.60;100320.50;5077593;28;20040;-78
2021/10/15 06:35:19;;;;;;;10.40;2.55;;;;;;;13.70;29.92;100315.50;5059000;28;20036;-78
2021/10/15 06:37:45;;;;;;;4.28;2.25;;;;;;;13.85;29.43;100308.94;5026085;28;20043;-76
2021/10/15 06:40:11;;;;;;;7.15;2.40;;;;;;;13.85;29.30;100303.56;5042355;28;20040;-76
2021/10/15 06:42:38;;;;;;;15.73;2.58;;;;;;;13.92;29.38;100300.41;5092024;28;20036;-76
2021/10/15 06:45:04;;;;;;;9.00;2.45;;;;;;;14.01;29.28;100294.28;5042272;28;20048;-77
2021/10/15 06:47:31;;;;;;;9.35;2.38;;;;;;;14.23;28.89;100296.97;5058976;28;20048;-77
2021/10/15 06:49:57;;;;;;;14.80;2.25;;;;;;;14.43;28.20;100287.28;5043721;28;20490;-76
2021/10/15 06:52:23;;;;;;;9.63;2.90;;;;;;;14.38;28.67;100277.91;5060683;28;20044;-76
2021/10/15 06:54:49;;;;;;;9.10;2.38;;;;;;;14.51;28.49;100275.94;5043814;28;20083;-76
2021/10/15 06:57:15;;;;;;;16.90;2.72;;;;;;;14.62;28.23;100286.69;5077203;28;20563;-77
2021/10/15 06:59:41;;;;;;;6.93;2.53;;;;;;;14.69;27.92;100287.88;5077706;28;20467;-76
2021/10/15 07:02:07;;;;;;;8.70;2.50;;;;;;;14.88;27.95;100286.38;5044025;28;20052;-77
2021/10/15 07:04:33;;;;;;;12.45;2.42;;;;;;;15.06;27.85;100291.06;5044081;28;20048;-75
2021/10/15 07:07:00;;;;;;;8.63;2.35;;;;;;;15.02;27.86;100256.47;5060645;28;20047;-75
2021/10/15 07:09:26;;;;;;;11.02;2.67;;;;;;;15.06;27.33;100274.91;5077057;28;20047;-78
2021/10/15 07:11:53;;;;;;;11.68;2.30;;;;;;;15.15;27.38;100257.13;5077006;28;20063;-75
2021/10/15 07:14:19;;;;;;;16.77;2.00;;;;;;;15.15;26.98;100240.97;5060426;28;20043;-76
2021/10/15 07:16:45;;;;;;;11.18;2.92;;;;;;;15.25;27.11;100252.66;5043873;28;20142;-76
2021/10/15 07:19:11;;;;;;;9.68;2.50;;;;;;;15.25;27.34;100243.75;5060182;28;20040;-76
2021/10/15 07:21:37;;;;;;;12.73;2.97;;;;;;;15.40;26.78;100236.19;5027027;28;20046;-74
2021/10/15 07:24:03;;;;;;;8.75;2.78;;;;;;;15.44;26.75;100229.56;5060417;28;20075;-75
2021/10/15 07:26:29;;;;;;;23.40;2.30;;;;;;;15.65;26.23;100243.91;5060236;28;20453;-76
2021/10/15 07:28:55;;;;;;;13.55;2.42;;;;;;;15.62;26.30;100235.19;5059958;28;20067;-78
2021/10/15 07:31:21;;;;;;;9.88;1.83;;;;;;;15.61;26.04;100225.38;5076638;28;20075;-77
2021/10/15 07:33:48;;;;;;;8.98;2.22;;;;;;;15.85;26.22;100227.81;5026713;28;20036;-76
2021/10/15 07:36:15;;;;;;;12.15;2.40;;;;;;;15.87;25.76;100231.22;5093170;28;20414;-76
2021/10/15 07:38:40;;;;;;;12.80;3.45;;;;;;;15.98;25.98;100225.72;5059676;28;20044;-76
2021/10/15 07:41:08;;;;;;;7.97;2.05;;;;;;;16.00;25.25;100210.28;5059679;28;20476;-80
2021/10/15 07:43:34;;;;;;;18.55;2.53;;;;;;;16.21;25.02;100221.88;5043746;28;20040;-77
2021/10/15 07:46:01;;;;;;;29.85;2.05;;;;;;;16.27;24.22;100224.00;5093256;28;20048;-77
2021/10/15 07:48:28;;;;;;;18.90;2.38;;;;;;;16.25;24.84;100217.91;5043735;28;20056;-77
2021/10/15 07:50:54;;;;;;;21.50;2.45;;;;;;;16.48;24.75;100220.38;5059764;28;20505;-76
2021/10/15 07:53:20;;;;;;;14.35;2.10;;;;;;;16.55;24.70;100232.31;5026574;28;20545;-77
2021/10/15 07:55:46;;;;;;;26.55;2.47;;;;;;;16.73;24.63;100227.94;5059910;28;20070;-76
2021/10/15 07:58:12;;;;;;;13.27;1.80;;;;;;;16.91;24.30;100216.44;5059512;28;20486;-76
2021/10/15 08:00:40;;;;;;;10.98;2.95;;;;;;;17.10;24.14;100208.34;5059410;28;20036;-76
2021/10/15 08:03:06;;;;;;;7.03;2.60;;;;;;;17.04;23.68;100227.84;5076097;28;20142;-77
2021/10/15 08:05:32;;;;;;;13.95;2.53;;;;;;;16.95;23.67;100212.47;5026241;28;20042;-76
2021/10/15 08:07:58;;;;;;;6.03;1.85;;;;;;;17.07;23.72;100207.75;5059209;28;20487;-77
2021/10/15 08:10:24;;;;;;;8.55;2.17;;;;;;;17.22;23.83;100199.06;5075795;28;20054;-77
2021/10/15 08:12:51;;;;;;;12.73;1.90;;;;;;;17.21;23.67;100200.06;5075819;28;20062;-76
2021/10/15 08:15:17;;;;;;;12.65;1.88;;;;;;;17.39;22.86;100210.16;5042596;28;20044;-76
2021/10/15 08:17:43;;;;;;;50.42;3.58;;;;;;;17.41;23.09;100189.22;5059157;28;20036;-76
2021/10/15 08:20:10;;;;;;;18.40;2.70;;;;;;;17.56;23.04;100192.31;5058781;28;20093;-75
2021/10/15 08:22:36;;;;;;;14.35;1.98;;;;;;;17.77;22.52;100197.56;5041585;28;20040;-76
2021/10/15 08:25:03;;;;;;;33.17;3.08;;;;;;;17.91;22.20;100179.00;5042338;28;20517;-76
2021/10/15 08:27:29;;;;;;;21.65;2.25;;;;;;;17.88;21.90;100189.25;5092282;28;20098;-77
2021/10/15 08:29:55;;;;;;;17.23;1.90;;;;;;;17.91;21.60;100178.13;5042508;28;20044;-76
2021/10/15 08:32:21;;;;;;;36.53;3.58;;;;;;;18.05;21.88;100201.13;5042076;28;20511;-76
2021/10/15 08:34:47;;;;;;;16.67;2.13;;;;;;;18.16;21.61;100215.28;5059364;28;20046;-77
2021/10/15 08:37:13;;;;;;;34.42;2.83;;;;;;;18.24;21.55;100200.16;5058641;28;20048;-76
2021/10/15 08:39:39;;;;;;;45.47;3.35;;;;;;;18.08;21.61;100207.09;5025740;28;20139;-76
2021/10/15 08:42:05;;;;;;;45.70;3.03;;;;;;;18.27;21.25;100197.16;5041933;28;20126;-76
2021/10/15 08:44:35;;;;;;;8.98;1.90;;;;;;;18.40;24.42;100203.94;5042040;28;20078;-79
2021/10/15 08:47:01;;;;;;;22.80;2.58;;;;;;;18.81;24.66;100208.97;5075322;28;20105;-81
2021/10/15 08:49:27;;;;;;;34.45;2.45;;;;;;;18.87;24.30;100213.72;5078486;28;20067;-80
2021/10/15 08:51:54;;;;;;;21.95;2.40;;;;;;;19.10;22.70;100198.69;5033575;28;20100;-78
2021/10/15 08:54:21;;;;;;;45.20;3.95;;;;;;;19.31;23.03;100184.81;5043634;28;20043;-80
2021/10/15 08:56:47;;;;;;;24.52;2.67;;;;;;;19.52;21.97;100191.72;5047437;28;20036;-79
2021/10/15 08:59:19;;;;;;;16.40;2.20;;;;;;;19.62;21.86;100177.06;5042248;28;20051;-78
2021/10/15 09:01:47;;;;;;;16.98;2.35;;;;;;;19.90;21.81;100187.75;5061155;28;20154;-77
2021/10/15 09:04:19;;;;;;;26.08;2.60;;;;;;;20.21;20.98;100187.19;5095604;28;20051;-79
2021/10/15 09:06:48;;;;;;;18.45;2.38;;;;;;;20.48;21.11;100186.06;5096507;28;20051;-80
2021/10/15 09:09:14;;;;;;;22.52;3.28;;;;;;;20.75;20.94;100161.34;5095396;28;20039;-80
2021/10/15 09:11:46;;;;;;;16.17;2.38;;;;;;;20.58;22.51;100190.38;5059090;28;20039;-88
2021/10/15 09:14:22;;;;;;;24.60;2.40;;;;;;;20.42;21.25;100163.13;5052391;28;20043;-84
2021/10/15 09:17:05;;;;;;;14.60;2.30;;;;;;;20.20;20.75;100182.75;5076279;28;20127;-79
2021/10/15 09:19:34;;;;;;;20.75;2.05;;;;;;;20.22;22.17;100161.72;5076024;28;20092;-80
2021/10/15 09:22:03;;;;;;;25.30;2.35;;;;;;;20.28;20.83;100169.22;5058382;28;20052;-78
2021/10/15 09:24:37;;;;;;;31.85;3.10;;;;;;;20.29;20.62;100155.47;5074459;28;20204;-79
2021/10/15 09:27:14;;;;;;;32.25;2.65;;;;;;;20.27;20.89;100126.78;5074913;28;20624;-80
2021/10/15 09:30:10;;;;;;;25.05;3.70;;;;;;;20.38;21.24;100157.22;5042677;28;20131;-80
2021/10/15 09:32:37;;;;;;;24.30;2.00;;;;;;;20.38;21.57;100161.75;5068568;28;20063;-78
2021/10/15 09:35:05;;;;;;;18.23;2.10;;;;;;;20.25;21.04;100177.69;5052710;28;20049;-77
2021/10/15 09:37:32;;;;;;;17.02;2.40;;;;;;;20.16;21.38;100163.25;5060216;28;20098;-78
2021/10/15 09:40:08;;;;;;;18.15;2.13;;;;;;;20.11;22.23;100166.44;5044378;28;20526;-77
2021/10/15 09:42:36;;;;;;;14.15;1.67;;;;;;;19.70;20.56;100159.13;5045667;28;20499;-76
2021/10/15 09:45:12;;;;;;;34.08;2.72;;;;;;;19.64;21.25;100161.50;5061522;28;20087;-76
2021/10/15 09:47:38;;;;;;;11.10;2.10;;;;;;;19.77;22.09;100157.47;5065614;28;20503;-76
2021/10/15 09:50:06;;;;;;;11.60;2.95;;;;;;;19.59;22.75;100165.66;5067402;28;20047;-76
2021/10/15 09:52:37;;;;;;;12.38;2.08;;;;;;;19.53;21.55;100150.03;5067044;28;20180;-78
2021/10/15 09:55:08;;;;;;;19.73;2.63;;;;;;;19.40;21.53;100153.16;5094836;28;20050;-75
2021/10/15 09:57:38;;;;;;;11.55;2.55;;;;;;;19.49;22.25;100154.94;5083469;28;20048;-75
2021/10/15 10:00:10;;;;;;;19.50;2.78;;;;;;;19.76;22.38;100144.94;5048248;28;20044;-75
2021/10/15 10:02:36;;;;;;;25.13;2.60;;;;;;;19.80;22.12;100147.16;5064047;28;20448;-76
2021/10/15 10:05:11;;;;;;;17.38;2.00;;;;;;;19.81;22.26;100139.88;5063661;28;20181;-76
2021/10/15 10:07:37;;;;;;;15.88;2.92;;;;;;;19.80;21.41;100138.16;5064141;28;20051;-76
2021/10/15 10:10:07;;;;;;;17.50;2.30;;;;;;;19.90;20.88;100133.47;5080617;28;20557;-75
2021/10/15 10:12:37;;;;;;;9.02;1.98;;;;;;;19.88;21.67;100155.31;5064348;28;20457;-77
2021/10/15 10:15:08;;;;;;;20.80;3.47;;;;;;;19.91;21.94;100143.31;5063968;28;20043;-75
2021/10/15 10:17:59;;;;;;;22.73;3.35;;;;;;;19.96;21.32;100146.38;5064056;28;20072;-77
2021/10/15 10:20:29;;;;;;;12.00;2.70;;;;;;;20.02;21.63;100145.72;5039815;28;20109;-76
2021/10/15 10:23:03;;;;;;;20.65;3.72;;;;;;;20.01;20.76;100143.16;5063328;28;20051;-76
2021/10/15 10:25:29;;;;;;;14.00;2.20;;;;;;;19.89;20.71;100132.59;5047112;28;20117;-76
2021/10/15 10:27:57;;;;;;;22.02;3.70;;;;;;;19.67;21.04;100132.34;5079938;28;20056;-76
2021/10/15 10:30:37;;;;;;;19.17;2.08;;;;;;;19.35;21.00;100131.13;5063996;28;20074;-76
2021/10/15 10:33:03;;;;;;;13.32;3.58;;;;;;;19.12;21.23;100142.50;5046913;28;20102;-75
2021/10/15 10:35:29;;;;;;;13.52;2.65;;;;;;;19.03;21.60;100129.03;5080084;28;20475;-74
2021/10/15 10:38:19;;;;;;;12.45;2.22;;;;;;;18.91;21.22;100147.41;5096376;28;20494;-75
2021/10/15 10:41:01;;;;;;;18.60;2.17;;;;;;;18.75;21.58;100144.56;5080706;28;20044;-75
2021/10/15 10:43:28;;;;;;;18.42;2.60;;;;;;;18.71;21.65;100143.16;5079373;28;20075;-76
2021/10/15 10:46:09;;;;;;;24.05;2.92;;;;;;;18.55;21.56;100136.56;5093540;28;20109;-76
2021/10/15 10:48:50;;;;;;;15.85;2.58;;;;;;;18.43;21.87;100141.38;5060280;28;20036;-77
2021/10/15 10:51:27;;;;;;;18.52;2.45;;;;;;;18.39;21.76;100117.44;5060647;28;20048;-75
2021/10/15 10:53:59;;;;;;;11.98;2.45;;;;;;;18.53;21.96;100133.16;5093240;28;20044;-76
2021/10/15 10:56:43;;;;;;;12.52;2.80;;;;;;;18.49;21.64;100139.88;5076957;28;20078;-78
2021/10/15 10:59:18;;;;;;;21.02;3.10;;;;;;;18.40;21.87;100135.41;5060420;28;20044;-77
2021/10/15 11:01:52;;;;;;;16.50;2.58;;;;;;;18.51;21.70;100147.88;5094002;28;20137;-75
2021/10/15 11:04:31;;;;;;;52.60;3.17;;;;;;;18.32;21.96;100124.50;5094249;28;20044;-76
2021/10/15 11:07:06;;;;;;;16.90;2.67;;;;;;;18.40;22.15;100132.69;5077572;28;20048;-76
2021/10/15 11:09:52;;;;;;;31.25;2.47;;;;;;;18.64;21.71;100124.78;5043943;28;20039;-75
2021/10/15 11:12:27;;;;;;;10.43;2.53;;;;;;;18.81;21.55;100119.56;5060776;28;20048;-76
2021/10/15 11:15:05;;;;;;;48.92;3.58;;;;;;;18.79;21.89;100135.13;5094174;28;20048;-75
2021/10/15 11:17:41;;;;;;;21.98;2.60;;;;;;;18.59;21.89;100132.53;5077994;28;20461;-74
2021/10/15 11:20:07;;;;;;;14.07;3.03;;;;;;;18.56;21.78;100130.13;5042553;28;20048;-77
2021/10/15 11:22:33;;;;;;;12.55;3.00;;;;;;;18.28;22.12;100125.78;5055904;28;20093;-75
2021/10/15 11:24:59;;;;;;;15.55;3.42;;;;;;;18.17;22.32;100111.50;5058751;28;20141;-74
2021/10/15 11:27:25;;;;;;;13.15;3.33;;;;;;;18.07;22.51;100118.81;5068239;28;20502;-76
2021/10/15 11:29:53;;;;;;;13.32;3.17;;;;;;;17.94;22.83;100102.97;5097274;28;20039;-75
2021/10/15 11:32:45;;;;;;;25.85;3.10;;;;;;;17.92;22.92;100114.91;5080602;28;20040;-76
2021/10/15 11:35:15;;;;;;;13.40;3.42;;;;;;;17.83;23.12;100094.19;5061525;28;20044;-76
2021/10/15 11:37:51;;;;;;;13.00;3.15;;;;;;;17.79;22.94;100079.25;5060023;28;20040;-76
2021/10/15 11:40:40;;;;;;;24.50;3.30;;;;;;;17.98;23.05;100095.38;5060558;28;20099;-77